createdAt,value
2023-03-05T00:01:53.132Z,3.70
2023-03-05T00:04:24.183Z,3.90
2023-03-05T00:06:55.799Z,3.90
2023-03-05T00:09:26.758Z,3.90
2023-03-05T00:11:57.896Z,3.90
2023-03-05T00:14:28.859Z,4.00
2023-03-05T00:16:59.979Z,4.00
2023-03-05T00:19:30.919Z,3.80
2023-03-05T00:22:01.767Z,3.80
2023-03-05T00:24:32.724Z,3.80
2023-03-05T00:27:03.805Z,3.60
2023-03-05T00:29:34.657Z,3.50
2023-03-05T00:32:05.859Z,3.50
2023-03-05T00:34:37.526Z,3.40
2023-03-05T00:37:09.198Z,3.40
2023-03-05T00:39:40.066Z,3.50
2023-03-05T00:42:11.592Z,3.50
2023-03-05T00:44:42.515Z,3.70
2023-03-05T00:47:13.363Z,3.60
2023-03-05T00:49:44.256Z,3.50
2023-03-05T00:52:15.173Z,3.30
2023-03-05T00:54:46.082Z,3.10
2023-03-05T00:57:17.156Z,3.40
2023-03-05T00:59:48.412Z,3.30
2023-03-05T01:02:19.143Z,3.30
2023-03-05T01:04:50.098Z,3.10
2023-03-05T01:07:21.124Z,3.00
2023-03-05T01:09:52.259Z,2.90
2023-03-05T01:12:23.220Z,2.80
2023-03-05T01:14:54.233Z,2.80
2023-03-05T01:17:25.267Z,2.80
2023-03-05T01:19:56.356Z,2.50
2023-03-05T01:22:27.207Z,2.40
2023-03-05T01:24:58.228Z,2.50
2023-03-05T01:27:29.304Z,2.60
2023-03-05T01:30:00.365Z,2.60
2023-03-05T01:32:31.314Z,2.50
2023-03-05T01:35:03.356Z,2.50
2023-03-05T01:37:34.251Z,2.50
2023-03-05T01:40:06.355Z,2.40
2023-03-05T01:42:37.313Z,2.40
2023-03-05T01:45:11.115Z,2.30
2023-03-05T01:47:42.832Z,2.40
2023-03-05T01:50:16.777Z,2.30
2023-03-05T01:52:50.482Z,2.40
2023-03-05T01:55:24.083Z,2.30
2023-03-05T01:57:57.265Z,2.10
2023-03-05T02:00:38.939Z,2.20
2023-03-05T02:03:12.229Z,2.30
2023-03-05T02:05:44.582Z,2.40
2023-03-05T02:08:17.852Z,2.40
2023-03-05T02:10:50.715Z,2.40
2023-03-05T02:13:23.751Z,2.20
2023-03-05T02:15:56.535Z,1.80
2023-03-05T02:18:27.770Z,1.60
2023-03-05T02:21:04.054Z,1.50
2023-03-05T02:23:37.274Z,1.60
2023-03-05T02:26:11.590Z,1.60
2023-03-05T02:28:44.498Z,1.60
2023-03-05T02:31:18.325Z,1.50
2023-03-05T02:33:49.617Z,1.50
2023-03-05T02:36:21.395Z,1.40
2023-03-05T02:38:53.163Z,1.30
2023-03-05T02:41:24.544Z,1.20
2023-03-05T02:43:55.428Z,1.50
2023-03-05T02:46:26.423Z,1.50
2023-03-05T02:48:57.328Z,1.60
2023-03-05T02:51:28.312Z,1.50
2023-03-05T02:53:59.170Z,1.40
2023-03-05T02:56:30.390Z,1.20
2023-03-05T02:59:01.282Z,1.20
2023-03-05T03:01:32.347Z,1.30
2023-03-05T03:04:03.415Z,1.50
2023-03-05T03:06:34.595Z,1.60
2023-03-05T03:09:07.077Z,1.50
2023-03-05T03:11:38.129Z,1.20
2023-03-05T03:14:09.124Z,1.30
2023-03-05T03:16:40.210Z,1.20
2023-03-05T03:19:11.243Z,1.20
2023-03-05T03:21:42.270Z,1.00
2023-03-05T03:24:13.069Z,1.00
2023-03-05T03:26:44.031Z,0.90
2023-03-05T03:29:14.950Z,0.80
2023-03-05T03:31:45.987Z,1.10
2023-03-05T03:34:17.506Z,1.20
2023-03-05T03:36:49.708Z,1.00
2023-03-05T03:39:21.009Z,1.10
2023-03-05T03:41:53.050Z,1.10
2023-03-05T03:44:24.870Z,1.00
2023-03-05T03:46:55.883Z,0.80
2023-03-05T03:49:28.445Z,0.90
2023-03-05T03:51:59.503Z,0.90
2023-03-05T03:54:30.346Z,0.90
2023-03-05T03:57:01.284Z,0.80
2023-03-05T03:59:32.318Z,0.90
2023-03-05T04:02:03.400Z,0.70
2023-03-05T04:04:34.330Z,0.80
2023-03-05T04:07:06.226Z,1.00
2023-03-05T04:09:37.143Z,0.90
2023-03-05T04:12:09.602Z,0.90
2023-03-05T04:14:40.660Z,1.00
2023-03-05T04:17:12.074Z,1.00
2023-03-05T04:19:43.511Z,0.90
2023-03-05T04:22:15.811Z,0.90
2023-03-05T04:24:47.007Z,0.90
2023-03-05T04:27:18.181Z,0.80
2023-03-05T04:29:49.254Z,0.80
2023-03-05T04:32:21.954Z,0.80
2023-03-05T04:34:53.516Z,0.70
2023-03-05T04:37:24.425Z,0.50
2023-03-05T04:39:55.662Z,0.50
2023-03-05T04:42:26.544Z,0.30
2023-03-05T04:44:57.603Z,0.10
2023-03-05T04:47:28.495Z,0.00
2023-03-05T04:49:59.324Z,0.00
2023-03-05T04:52:30.298Z,0.10
2023-03-05T04:55:01.145Z,0.00
2023-03-05T04:57:32.180Z,0.00
2023-03-05T05:00:04.822Z,0.10
2023-03-05T05:02:36.096Z,0.10
2023-03-05T05:05:08.485Z,0.00
2023-03-05T05:07:39.631Z,0.00
2023-03-05T05:10:13.155Z,0.10
2023-03-05T05:12:44.414Z,0.10
2023-03-05T05:15:15.975Z,0.10
2023-03-05T05:17:46.984Z,0.20
2023-03-05T05:20:19.134Z,0.10
2023-03-05T05:22:50.036Z,-0.10
2023-03-05T05:25:21.434Z,-0.10
2023-03-05T05:27:52.510Z,-0.20
2023-03-05T05:30:23.475Z,-0.30
2023-03-05T05:32:54.600Z,-0.20
2023-03-05T05:35:25.368Z,-0.40
2023-03-05T05:37:56.310Z,-0.40
2023-03-05T05:40:27.255Z,-0.40
2023-03-05T05:42:58.170Z,-0.20
2023-03-05T05:45:29.240Z,-0.20
2023-03-05T05:48:00.397Z,-0.40
2023-03-05T05:50:31.534Z,-0.40
2023-03-05T05:53:02.693Z,-0.70
2023-03-05T05:55:33.731Z,-0.60
2023-03-05T05:58:04.848Z,-0.50
2023-03-05T06:00:35.796Z,-0.30
2023-03-05T06:03:08.115Z,-0.30
2023-03-05T06:05:39.180Z,-0.30
2023-03-05T06:08:09.946Z,-0.60
2023-03-05T06:10:41.097Z,-0.80
2023-03-05T06:13:11.997Z,-0.80
2023-03-05T06:15:42.874Z,-0.60
2023-03-05T06:18:13.901Z,-0.80
2023-03-05T06:20:44.911Z,-0.60
2023-03-05T06:23:16.085Z,-0.70
2023-03-05T06:25:47.143Z,-0.80
2023-03-05T06:28:19.307Z,-0.80
2023-03-05T06:30:50.187Z,-0.80
2023-03-05T06:33:21.216Z,-0.90
2023-03-05T06:35:52.237Z,-0.70
2023-03-05T06:38:23.353Z,-0.70
2023-03-05T06:40:54.611Z,-0.80
2023-03-05T06:43:25.550Z,-0.90
2023-03-05T06:46:06.008Z,-1.10
2023-03-05T06:48:37.137Z,-1.10
2023-03-05T06:51:10.183Z,-1.00
2023-03-05T06:53:41.199Z,-0.70
2023-03-05T06:56:14.237Z,-0.50
2023-03-05T06:58:46.101Z,-0.60
2023-03-05T07:01:17.241Z,-0.50
2023-03-05T07:03:49.947Z,-0.40
2023-03-05T07:06:21.317Z,-0.40
2023-03-05T07:08:52.376Z,-0.40
2023-03-05T07:11:23.911Z,-0.60
2023-03-05T07:13:55.046Z,-0.50
2023-03-05T07:16:27.830Z,-0.40
2023-03-05T07:19:00.365Z,-0.30
2023-03-05T07:21:32.935Z,-0.20
2023-03-05T07:24:05.094Z,-0.10
2023-03-05T07:26:36.339Z,0.00
2023-03-05T07:29:07.251Z,0.10
2023-03-05T07:31:38.252Z,0.20
2023-03-05T07:34:09.393Z,0.30
2023-03-05T07:36:42.492Z,0.30
2023-03-05T07:39:14.671Z,0.40
2023-03-05T07:41:45.699Z,0.50
2023-03-05T07:44:17.717Z,0.70
2023-03-05T07:46:48.779Z,0.80
2023-03-05T07:49:20.250Z,0.90
2023-03-05T07:51:52.936Z,0.80
2023-03-05T07:54:24.755Z,0.90
2023-03-05T07:56:57.748Z,1.00
2023-03-05T07:59:29.393Z,1.10
2023-03-05T08:02:00.681Z,1.20
2023-03-05T08:04:32.612Z,1.20
2023-03-05T08:07:04.788Z,1.20
2023-03-05T08:09:35.570Z,1.20
2023-03-05T08:12:07.306Z,1.40
2023-03-05T08:14:48.668Z,1.40
2023-03-05T08:17:20.528Z,1.40
2023-03-05T08:19:54.561Z,1.40
2023-03-05T08:22:27.063Z,1.50
2023-03-05T08:24:58.745Z,1.60
2023-03-05T08:27:29.947Z,1.60
2023-03-05T08:30:02.320Z,1.60
2023-03-05T08:32:35.827Z,1.80
2023-03-05T08:35:09.758Z,2.00
2023-03-05T08:37:41.606Z,1.80
2023-03-05T08:40:15.483Z,1.70
2023-03-05T08:42:46.892Z,1.80
2023-03-05T08:45:18.141Z,1.90
2023-03-05T08:47:48.947Z,2.20
2023-03-05T08:50:22.308Z,2.40
2023-03-05T08:52:53.227Z,2.40
2023-03-05T08:55:24.387Z,2.40
2023-03-05T08:57:55.332Z,2.50
2023-03-05T09:00:28.032Z,2.60
2023-03-05T09:02:59.169Z,2.60
2023-03-05T09:05:30.404Z,2.70
2023-03-05T09:08:02.727Z,2.80
2023-03-05T09:10:34.415Z,2.70
2023-03-05T09:13:05.832Z,2.40
2023-03-05T09:15:37.769Z,2.60
2023-03-05T09:18:09.308Z,2.80
2023-03-05T09:20:40.722Z,2.80
2023-03-05T09:23:11.651Z,2.90
2023-03-05T09:25:43.770Z,3.10
2023-03-05T09:28:14.894Z,3.20
2023-03-05T09:30:46.541Z,3.10
2023-03-05T09:33:17.751Z,3.20
2023-03-05T09:35:49.270Z,3.50
2023-03-05T09:38:21.384Z,3.80
2023-03-05T09:40:55.881Z,4.10
2023-03-05T09:46:18.898Z,3.70
2023-03-05T09:48:54.699Z,4.00
2023-03-05T09:51:28.831Z,4.20
2023-03-05T09:56:44.559Z,4.20
2023-03-05T09:59:27.893Z,4.30
2023-03-05T10:02:02.011Z,4.50
2023-03-05T10:04:37.492Z,3.90
2023-03-05T10:07:11.236Z,4.20
2023-03-05T10:09:48.692Z,4.10
2023-03-05T10:12:28.117Z,4.60
2023-03-05T10:15:00.864Z,4.70
2023-03-05T10:18:09.798Z,4.90
2023-03-05T10:21:00.707Z,5.00
2023-03-05T10:23:37.383Z,5.40
2023-03-05T10:26:15.510Z,5.20
2023-03-05T10:28:51.090Z,5.20
2023-03-05T10:31:44.979Z,5.50
2023-03-05T10:34:33.710Z,5.70
2023-03-05T10:37:13.025Z,5.50
2023-03-05T10:40:09.953Z,5.90
2023-03-05T10:42:45.508Z,6.20
2023-03-05T10:45:19.640Z,5.90
2023-03-05T10:47:54.232Z,6.00
2023-03-05T10:50:27.696Z,6.50
2023-03-05T10:53:05.326Z,6.60
2023-03-05T10:55:36.357Z,6.50
2023-03-05T10:58:14.019Z,6.90
2023-03-05T11:01:00.165Z,6.90
2023-03-05T11:03:46.022Z,6.90
2023-03-05T11:08:56.451Z,7.40
2023-03-05T11:14:06.735Z,7.40
2023-03-05T11:16:48.616Z,7.70
2023-03-05T11:19:23.172Z,7.50
2023-03-05T11:22:12.156Z,7.10
2023-03-05T11:24:43.539Z,7.30
2023-03-05T11:27:31.982Z,7.50
2023-03-05T11:30:03.579Z,7.70
2023-03-05T11:32:34.535Z,7.20
2023-03-05T11:35:08.738Z,7.40
2023-03-05T11:37:39.791Z,7.30
2023-03-05T11:40:24.900Z,7.80
2023-03-05T11:42:58.495Z,7.80
2023-03-05T11:45:32.937Z,7.90
2023-03-05T11:48:09.901Z,8.30
2023-03-05T11:50:42.989Z,8.70
2023-03-05T11:53:18.082Z,9.20
2023-03-05T11:55:52.195Z,9.30
2023-03-05T11:58:32.150Z,8.90
2023-03-05T12:01:04.525Z,8.70
2023-03-05T12:03:37.868Z,9.20
2023-03-05T12:06:13.212Z,9.40
2023-03-05T12:08:48.076Z,9.70
2023-03-05T12:11:23.024Z,9.30
2023-03-05T12:13:56.984Z,8.80
2023-03-05T12:16:35.367Z,9.30
2023-03-05T12:19:18.511Z,8.60
2023-03-05T12:24:40.825Z,8.30
2023-03-05T12:27:18.611Z,8.50
2023-03-05T12:29:51.739Z,9.30
2023-03-05T12:33:06.184Z,8.70
2023-03-05T12:35:39.758Z,8.60
2023-03-05T12:38:35.720Z,9.50
2023-03-05T12:41:49.873Z,10.30
2023-03-05T12:44:24.578Z,10.30
2023-03-05T12:50:33.329Z,9.80
2023-03-05T12:53:09.813Z,9.70
2023-03-05T12:55:44.388Z,9.90
2023-03-05T12:58:18.471Z,9.80
2023-03-05T13:00:51.798Z,9.90
2023-03-05T13:03:25.460Z,9.10
2023-03-05T13:05:59.407Z,10.10
2023-03-05T13:08:32.458Z,10.50
2023-03-05T13:11:05.986Z,10.30
2023-03-05T13:13:39.618Z,9.40
2023-03-05T13:16:19.005Z,10.00
2023-03-05T13:18:51.657Z,9.90
2023-03-05T13:21:25.262Z,10.20
2023-03-05T13:23:58.754Z,10.30
2023-03-05T13:26:48.230Z,10.50
2023-03-05T13:32:00.748Z,10.20
2023-03-05T13:34:46.106Z,10.00
2023-03-05T13:37:08.743Z,10.40
2023-03-05T13:39:42.515Z,10.30
2023-03-05T13:42:20.511Z,9.80
2023-03-05T13:44:58.707Z,9.30
2023-03-05T13:47:33.295Z,9.90
2023-03-05T13:50:06.343Z,9.80
2023-03-05T13:52:39.158Z,10.10
2023-03-05T13:55:17.793Z,10.30
2023-03-05T13:57:51.205Z,10.00
2023-03-05T14:00:35.145Z,10.00
2023-03-05T14:03:25.907Z,10.40
2023-03-05T14:05:57.132Z,11.00
2023-03-05T14:08:30.084Z,10.90
2023-03-05T14:11:22.541Z,10.90
2023-03-05T14:14:00.350Z,11.20
2023-03-05T14:16:34.014Z,10.80
2023-03-05T14:19:07.399Z,10.80
2023-03-05T14:21:50.482Z,10.90
2023-03-05T14:24:27.061Z,10.60
2023-03-05T14:27:03.613Z,10.00
2023-03-05T14:29:36.055Z,9.80
2023-03-05T14:32:09.098Z,9.30
2023-03-05T14:34:42.224Z,8.90
2023-03-05T14:40:01.055Z,9.20
2023-03-05T14:42:35.516Z,8.90
2023-03-05T14:45:15.990Z,8.70
2023-03-05T14:47:47.721Z,9.20
2023-03-05T14:50:21.498Z,9.10
2023-03-05T14:52:55.330Z,8.60
2023-03-05T14:55:30.598Z,8.60
2023-03-05T14:58:05.194Z,8.50
2023-03-05T15:00:36.586Z,8.70
2023-03-05T15:03:14.532Z,8.50
2023-03-05T15:05:47.526Z,8.60
2023-03-05T15:08:21.973Z,8.40
2023-03-05T15:10:53.534Z,8.30
2023-03-05T15:13:25.040Z,8.30
2023-03-05T15:15:56.577Z,8.40
2023-03-05T15:18:27.753Z,8.20
2023-03-05T15:20:59.233Z,8.10
2023-03-05T15:23:31.940Z,8.30
2023-03-05T15:26:05.077Z,8.10
2023-03-05T15:31:18.205Z,8.00
2023-03-05T15:33:49.779Z,7.90
2023-03-05T15:36:21.940Z,8.10
2023-03-05T15:38:53.060Z,8.10
2023-03-05T15:41:25.076Z,7.90
2023-03-05T15:43:57.688Z,7.90
2023-03-05T15:46:29.330Z,7.70
2023-03-05T15:49:00.406Z,7.70
2023-03-05T15:51:31.519Z,7.60
2023-03-05T15:54:02.418Z,7.60
2023-03-05T15:56:35.267Z,7.40
2023-03-05T15:59:10.495Z,7.30
2023-03-05T16:04:20.255Z,7.40
2023-03-05T16:06:52.541Z,7.20
2023-03-05T16:09:24.285Z,7.20
2023-03-05T16:11:55.487Z,7.10
2023-03-05T16:14:28.440Z,7.10
2023-03-05T16:17:00.911Z,7.10
2023-03-05T16:19:33.975Z,7.10
2023-03-05T16:22:05.037Z,7.10
2023-03-05T16:24:36.234Z,6.90
2023-03-05T16:27:07.724Z,6.90
2023-03-05T16:29:40.464Z,6.80
2023-03-05T16:32:11.529Z,6.90
2023-03-05T16:34:45.154Z,6.80
2023-03-05T16:37:21.734Z,6.70
2023-03-05T16:39:53.742Z,6.60
2023-03-05T16:42:26.358Z,6.40
2023-03-05T16:44:57.564Z,6.50
2023-03-05T16:47:29.236Z,6.50
2023-03-05T16:50:02.358Z,6.40
2023-03-05T16:52:34.180Z,6.60
2023-03-05T16:55:05.378Z,6.50
2023-03-05T16:57:38.602Z,6.40
2023-03-05T17:00:13.121Z,6.40
2023-03-05T17:02:45.743Z,6.30
2023-03-05T17:05:16.953Z,6.20
2023-03-05T17:07:47.776Z,6.20
2023-03-05T17:10:21.618Z,6.10
2023-03-05T17:12:53.158Z,6.00
2023-03-05T17:15:25.256Z,5.90
2023-03-05T17:17:56.381Z,5.80
2023-03-05T17:20:27.729Z,5.80
2023-03-05T17:22:59.072Z,5.70
2023-03-05T17:25:30.598Z,5.70
2023-03-05T17:28:01.857Z,5.70
2023-03-05T17:30:33.638Z,5.50
2023-03-05T17:33:05.089Z,5.50
2023-03-05T17:35:36.593Z,5.40
2023-03-05T17:38:10.560Z,5.40
2023-03-05T17:40:41.302Z,5.20
2023-03-05T17:43:12.578Z,5.10
2023-03-05T17:45:43.743Z,5.10
2023-03-05T17:48:15.271Z,5.00
2023-03-05T17:50:46.777Z,4.90
2023-03-05T17:53:17.819Z,4.90
2023-03-05T17:55:49.179Z,4.80
2023-03-05T17:58:20.281Z,4.60
2023-03-05T18:00:51.840Z,4.40
2023-03-05T18:03:23.064Z,4.20
2023-03-05T18:05:54.483Z,4.00
2023-03-05T18:08:25.802Z,4.00
2023-03-05T18:10:58.400Z,4.00
2023-03-05T18:13:29.710Z,3.90
2023-03-05T18:16:02.244Z,3.70
2023-03-05T18:18:35.915Z,3.60
2023-03-05T18:21:08.214Z,3.50
2023-03-05T18:23:40.045Z,3.40
2023-03-05T18:26:11.359Z,3.50
2023-03-05T18:28:42.934Z,3.50
2023-03-05T18:31:14.020Z,3.50
2023-03-05T18:33:46.207Z,3.50
2023-03-05T18:36:17.329Z,3.60
2023-03-05T18:38:49.159Z,4.10
2023-03-05T18:41:24.748Z,4.20
2023-03-05T18:43:56.238Z,4.20
2023-03-05T18:46:27.902Z,4.40
2023-03-05T18:48:58.805Z,4.40
2023-03-05T18:51:38.438Z,4.50
2023-03-05T18:54:09.798Z,4.40
2023-03-05T18:56:41.304Z,4.20
2023-03-05T18:59:12.529Z,4.10
2023-03-05T19:01:44.536Z,4.00
2023-03-05T19:04:15.809Z,3.90
2023-03-05T19:06:46.984Z,3.80
2023-03-05T19:09:20.194Z,3.60
2023-03-05T19:11:51.239Z,3.60
2023-03-05T19:14:22.320Z,3.50
2023-03-05T19:16:55.372Z,3.40
2023-03-05T19:19:26.364Z,3.40
2023-03-05T19:22:01.236Z,3.50
2023-03-05T19:24:34.723Z,3.40
2023-03-05T19:27:09.783Z,3.40
2023-03-05T19:29:41.711Z,3.20
2023-03-05T19:32:16.286Z,3.10
2023-03-05T19:34:47.658Z,3.10
2023-03-05T19:37:19.037Z,3.00
2023-03-05T19:39:53.621Z,2.80
2023-03-05T19:42:24.799Z,2.80
2023-03-05T19:44:58.426Z,2.80
2023-03-05T19:47:30.512Z,2.70
2023-03-05T19:50:02.140Z,2.60
2023-03-05T19:52:34.503Z,2.60
2023-03-05T19:55:06.571Z,2.60
2023-03-05T19:57:39.903Z,2.70
2023-03-05T20:00:15.274Z,2.60
2023-03-05T20:02:48.731Z,2.30
2023-03-05T20:05:22.323Z,2.20
2023-03-05T20:07:54.897Z,2.10
2023-03-05T20:10:27.200Z,2.10
2023-03-05T20:12:58.472Z,2.20
2023-03-05T20:15:30.045Z,2.20
2023-03-05T20:18:01.338Z,2.20
2023-03-05T20:20:32.301Z,2.30
2023-03-05T20:23:04.720Z,2.10
2023-03-05T20:25:35.716Z,2.20
2023-03-05T20:28:07.737Z,2.10
2023-03-05T20:30:39.135Z,2.10
2023-03-05T20:33:10.052Z,2.20
2023-03-05T20:35:41.280Z,2.20
2023-03-05T20:38:21.250Z,2.10
2023-03-05T20:40:53.070Z,2.00
2023-03-05T20:43:24.984Z,1.90
2023-03-05T20:45:57.187Z,1.90
2023-03-05T20:48:29.124Z,1.90
2023-03-05T20:51:01.762Z,1.80
2023-03-05T20:53:32.780Z,1.80
2023-03-05T20:56:03.771Z,1.80
2023-03-05T20:58:34.879Z,1.80
2023-03-05T21:01:06.273Z,1.60
2023-03-05T21:03:38.949Z,1.50
2023-03-05T21:06:10.651Z,1.40
2023-03-05T21:08:41.651Z,1.30
2023-03-05T21:11:13.898Z,1.30
2023-03-05T21:13:44.676Z,1.30
2023-03-05T21:16:18.634Z,1.40
2023-03-05T21:19:07.866Z,1.30
2023-03-05T21:21:39.189Z,1.70
2023-03-05T21:24:10.959Z,1.80
2023-03-05T21:26:41.904Z,1.80
2023-03-05T21:29:12.859Z,1.70
2023-03-05T21:31:43.843Z,1.60
2023-03-05T21:34:14.725Z,1.50
2023-03-05T21:36:45.756Z,1.40
2023-03-05T21:39:16.881Z,1.40
2023-03-05T21:41:48.491Z,1.30
2023-03-05T21:44:19.205Z,1.30
2023-03-05T21:46:51.393Z,1.20
2023-03-05T21:49:22.311Z,1.30
2023-03-05T21:51:57.121Z,1.30
2023-03-05T21:54:29.061Z,1.20
2023-03-05T21:57:01.028Z,1.30
2023-03-05T21:59:32.165Z,1.40
2023-03-05T22:02:03.074Z,1.50
2023-03-05T22:04:34.207Z,1.50
2023-03-05T22:07:06.476Z,1.40
2023-03-05T22:09:38.006Z,1.30
2023-03-05T22:12:12.879Z,1.10
2023-03-05T22:14:43.809Z,0.90
2023-03-05T22:17:14.976Z,0.70
2023-03-05T22:19:45.993Z,0.80
2023-03-05T22:22:16.973Z,0.80
2023-03-05T22:24:47.900Z,0.90
2023-03-05T22:27:18.861Z,0.80
2023-03-05T22:29:49.861Z,0.80
2023-03-05T22:32:20.651Z,0.90
2023-03-05T22:34:51.769Z,0.90
2023-03-05T22:37:23.716Z,1.00
2023-03-05T22:39:57.916Z,1.10
2023-03-05T22:42:29.686Z,1.30
2023-03-05T22:45:01.290Z,1.10
2023-03-05T22:47:32.210Z,1.00
2023-03-05T22:50:03.551Z,1.00
2023-03-05T22:52:34.561Z,0.80
2023-03-05T22:55:05.956Z,0.70
2023-03-05T22:57:37.903Z,0.70
2023-03-05T23:00:14.571Z,0.60
2023-03-05T23:02:46.098Z,0.50
2023-03-05T23:05:17.502Z,0.70
2023-03-05T23:07:49.403Z,0.70
2023-03-05T23:10:22.548Z,0.50
2023-03-05T23:12:55.096Z,0.50
2023-03-05T23:15:27.049Z,0.50
2023-03-05T23:17:58.698Z,0.40
2023-03-05T23:20:31.679Z,0.30
2023-03-05T23:23:03.476Z,0.30
2023-03-05T23:25:36.603Z,0.30
2023-03-05T23:28:08.042Z,0.30
2023-03-05T23:30:39.817Z,0.30
2023-03-05T23:33:14.828Z,0.40
2023-03-05T23:35:52.343Z,0.30
2023-03-05T23:38:23.705Z,0.40
2023-03-05T23:40:58.087Z,0.30
2023-03-05T23:43:29.316Z,0.20
2023-03-05T23:46:02.022Z,0.00
2023-03-05T23:48:33.046Z,-0.10
2023-03-05T23:51:05.343Z,-0.10
2023-03-05T23:53:36.217Z,0.00
2023-03-05T23:56:12.803Z,0.10
2023-03-05T23:58:43.726Z,0.40
